sensor_id;sensor_type;location;lat;lon;timestamp;pressure;altitude;pressure_sealevel;temperature;humidity
64668;BME280;51077;42.716;23.344;2023-07-08T00:00:23;95666.56;;;20.36;66.14
64668;BME280;51077;42.716;23.344;2023-07-08T00:02:50;95663.81;;;20.28;66.46
64668;BME280;51077;42.716;23.344;2023-07-08T00:05:19;95658.25;;;20.28;66.42
64668;BME280;51077;42.716;23.344;2023-07-08T00:07:45;95647.09;;;20.28;66.12
64668;BME280;51077;42.716;23.344;2023-07-08T00:10:20;95650.06;;;20.30;66.24
64668;BME280;51077;42.716;23.344;2023-07-08T00:12:46;95644.72;;;20.25;66.51
64668;BME280;51077;42.716;23.344;2023-07-08T00:15:13;95646.00;;;20.24;66.40
64668;BME280;51077;42.716;23.344;2023-07-08T00:17:39;95642.31;;;20.21;66.41
64668;BME280;51077;42.716;23.344;2023-07-08T00:22:56;95633.66;;;20.09;67.04
64668;BME280;51077;42.716;23.344;2023-07-08T00:25:22;95631.66;;;20.02;67.22
64668;BME280;51077;42.716;23.344;2023-07-08T00:27:48;95627.75;;;20.05;67.01
64668;BME280;51077;42.716;23.344;2023-07-08T00:30:27;95619.59;;;20.00;67.29
64668;BME280;51077;42.716;23.344;2023-07-08T00:32:54;95621.31;;;19.95;67.34
64668;BME280;51077;42.716;23.344;2023-07-08T00:35:38;95626.16;;;19.95;67.25
64668;BME280;51077;42.716;23.344;2023-07-08T00:38:21;95622.28;;;19.90;67.60
64668;BME280;51077;42.716;23.344;2023-07-08T00:41:12;95629.13;;;19.89;67.47
64668;BME280;51077;42.716;23.344;2023-07-08T00:43:49;95633.63;;;19.84;67.49
64668;BME280;51077;42.716;23.344;2023-07-08T00:49:15;95621.75;;;19.84;67.46
64668;BME280;51077;42.716;23.344;2023-07-08T00:51:42;95618.44;;;19.78;67.61
64668;BME280;51077;42.716;23.344;2023-07-08T00:54:18;95618.59;;;19.80;67.67
64668;BME280;51077;42.716;23.344;2023-07-08T00:56:59;95614.19;;;19.77;68.06
64668;BME280;51077;42.716;23.344;2023-07-08T00:59:33;95616.78;;;19.75;68.13
64668;BME280;51077;42.716;23.344;2023-07-08T01:02:00;95616.78;;;19.75;67.76
64668;BME280;51077;42.716;23.344;2023-07-08T01:04:40;95609.72;;;19.74;67.85
64668;BME280;51077;42.716;23.344;2023-07-08T01:07:09;95609.75;;;19.66;68.08
64668;BME280;51077;42.716;23.344;2023-07-08T01:09:46;95609.22;;;19.60;68.31
64668;BME280;51077;42.716;23.344;2023-07-08T01:12:16;95607.56;;;19.57;68.19
64668;BME280;51077;42.716;23.344;2023-07-08T01:14:44;95601.81;;;19.55;68.34
64668;BME280;51077;42.716;23.344;2023-07-08T01:17:11;95607.75;;;19.59;68.40
64668;BME280;51077;42.716;23.344;2023-07-08T01:19:42;95601.63;;;19.53;68.49
64668;BME280;51077;42.716;23.344;2023-07-08T01:22:08;95600.75;;;19.50;68.38
64668;BME280;51077;42.716;23.344;2023-07-08T01:24:36;95601.13;;;19.47;68.55
64668;BME280;51077;42.716;23.344;2023-07-08T01:27:05;95601.50;;;19.43;68.54
64668;BME280;51077;42.716;23.344;2023-07-08T01:29:32;95592.03;;;19.46;68.53
64668;BME280;51077;42.716;23.344;2023-07-08T01:31:58;95598.53;;;19.41;68.57
64668;BME280;51077;42.716;23.344;2023-07-08T01:34:33;95592.97;;;19.41;68.40
64668;BME280;51077;42.716;23.344;2023-07-08T01:37:01;95590.94;;;19.42;68.35
64668;BME280;51077;42.716;23.344;2023-07-08T01:39:30;95587.97;;;19.40;68.44
64668;BME280;51077;42.716;23.344;2023-07-08T01:41:57;95595.38;;;19.37;68.43
64668;BME280;51077;42.716;23.344;2023-07-08T01:44:30;95590.59;;;19.38;68.36
64668;BME280;51077;42.716;23.344;2023-07-08T01:47:06;95582.41;;;19.32;68.61
64668;BME280;51077;42.716;23.344;2023-07-08T01:49:33;95583.56;;;19.29;68.42
64668;BME280;51077;42.716;23.344;2023-07-08T01:52:01;95590.03;;;19.31;68.50
64668;BME280;51077;42.716;23.344;2023-07-08T01:54:26;95583.72;;;19.31;68.23
64668;BME280;51077;42.716;23.344;2023-07-08T01:56:57;95576.69;;;19.30;68.62
64668;BME280;51077;42.716;23.344;2023-07-08T01:59:22;95575.94;;;19.29;68.29
64668;BME280;51077;42.716;23.344;2023-07-08T02:01:48;95579.28;;;19.28;68.33
64668;BME280;51077;42.716;23.344;2023-07-08T02:04:15;95586.34;;;19.29;68.39
64668;BME280;51077;42.716;23.344;2023-07-08T02:06:40;95585.25;;;19.24;68.35
64668;BME280;51077;42.716;23.344;2023-07-08T02:09:07;95594.50;;;19.27;68.35
64668;BME280;51077;42.716;23.344;2023-07-08T02:11:32;95595.81;;;19.26;68.32
64668;BME280;51077;42.716;23.344;2023-07-08T02:13:58;95603.59;;;19.27;68.28
64668;BME280;51077;42.716;23.344;2023-07-08T02:16:25;95602.13;;;19.26;68.29
64668;BME280;51077;42.716;23.344;2023-07-08T02:18:51;95603.44;;;19.25;68.31
64668;BME280;51077;42.716;23.344;2023-07-08T02:21:16;95603.97;;;19.24;68.36
64668;BME280;51077;42.716;23.344;2023-07-08T02:23:44;95603.44;;;19.25;68.24
64668;BME280;51077;42.716;23.344;2023-07-08T02:26:09;95608.63;;;19.21;68.26
64668;BME280;51077;42.716;23.344;2023-07-08T02:28:35;95601.59;;;19.20;68.53
64668;BME280;51077;42.716;23.344;2023-07-08T02:31:03;95608.06;;;19.15;68.62
64668;BME280;51077;42.716;23.344;2023-07-08T02:33:29;95619.22;;;19.15;68.68
64668;BME280;51077;42.716;23.344;2023-07-08T02:35:58;95617.34;;;19.18;68.59
64668;BME280;51077;42.716;23.344;2023-07-08T02:38:25;95625.13;;;19.19;68.50
64668;BME280;51077;42.716;23.344;2023-07-08T02:40:51;95632.38;;;19.22;68.24
64668;BME280;51077;42.716;23.344;2023-07-08T02:43:16;95630.69;;;19.19;68.47
64668;BME280;51077;42.716;23.344;2023-07-08T02:45:41;95631.44;;;19.20;68.41
64668;BME280;51077;42.716;23.344;2023-07-08T02:48:07;95629.06;;;19.16;68.48
64668;BME280;51077;42.716;23.344;2023-07-08T02:50:32;95633.47;;;19.19;68.60
64668;BME280;51077;42.716;23.344;2023-07-08T02:52:58;95638.16;;;19.17;68.75
64668;BME280;51077;42.716;23.344;2023-07-08T02:55:23;95640.56;;;19.13;68.50
64668;BME280;51077;42.716;23.344;2023-07-08T02:57:49;95646.13;;;19.13;68.66
64668;BME280;51077;42.716;23.344;2023-07-08T03:00:14;95647.25;;;19.09;68.82
64668;BME280;51077;42.716;23.344;2023-07-08T03:02:40;95640.38;;;19.11;68.93
64668;BME280;51077;42.716;23.344;2023-07-08T03:05:06;95640.00;;;19.14;68.87
64668;BME280;51077;42.716;23.344;2023-07-08T03:07:32;95632.75;;;19.11;69.00
64668;BME280;51077;42.716;23.344;2023-07-08T03:09:57;95636.69;;;19.08;69.13
64668;BME280;51077;42.716;23.344;2023-07-08T03:12:22;95640.94;;;19.09;69.02
64668;BME280;51077;42.716;23.344;2023-07-08T03:14:48;95636.09;;;19.09;69.14
64668;BME280;51077;42.716;23.344;2023-07-08T03:17:13;95640.78;;;19.07;68.85
64668;BME280;51077;42.716;23.344;2023-07-08T03:19:39;95643.72;;;19.09;68.88
64668;BME280;51077;42.716;23.344;2023-07-08T03:22:04;95638.00;;;19.07;69.01
64668;BME280;51077;42.716;23.344;2023-07-08T03:24:31;95645.75;;;19.08;68.79
64668;BME280;51077;42.716;23.344;2023-07-08T03:26:56;95646.34;;;19.07;69.20
64668;BME280;51077;42.716;23.344;2023-07-08T03:29:22;95651.50;;;19.11;69.02
64668;BME280;51077;42.716;23.344;2023-07-08T03:31:48;95649.06;;;19.15;68.84
64668;BME280;51077;42.716;23.344;2023-07-08T03:34:15;95638.31;;;19.11;69.06
64668;BME280;51077;42.716;23.344;2023-07-08T03:36:48;95643.56;;;19.07;69.27
64668;BME280;51077;42.716;23.344;2023-07-08T03:39:18;95630.53;;;19.09;69.08
64668;BME280;51077;42.716;23.344;2023-07-08T03:41:44;95634.25;;;19.12;69.28
64668;BME280;51077;42.716;23.344;2023-07-08T03:44:10;95634.25;;;19.12;69.20
64668;BME280;51077;42.716;23.344;2023-07-08T03:46:36;95629.59;;;19.15;69.14
64668;BME280;51077;42.716;23.344;2023-07-08T03:49:01;95623.88;;;19.13;68.92
64668;BME280;51077;42.716;23.344;2023-07-08T03:51:32;95620.91;;;19.11;69.17
64668;BME280;51077;42.716;23.344;2023-07-08T03:53:58;95632.56;;;19.17;69.25
64668;BME280;51077;42.716;23.344;2023-07-08T03:56:24;95636.25;;;19.19;69.15
64668;BME280;51077;42.716;23.344;2023-07-08T03:58:50;95631.84;;;19.16;69.31
64668;BME280;51077;42.716;23.344;2023-07-08T04:01:21;95627.38;;;19.21;69.09
64668;BME280;51077;42.716;23.344;2023-07-08T04:03:50;95620.88;;;19.26;69.03
64668;BME280;51077;42.716;23.344;2023-07-08T04:06:16;95618.59;;;19.32;68.79
64668;BME280;51077;42.716;23.344;2023-07-08T04:08:41;95620.63;;;19.39;68.52
64668;BME280;51077;42.716;23.344;2023-07-08T04:11:10;95626.16;;;19.47;68.21
64668;BME280;51077;42.716;23.344;2023-07-08T04:13:36;95633.00;;;19.53;67.89
64668;BME280;51077;42.716;23.344;2023-07-08T04:16:04;95635.03;;;19.61;67.75
64668;BME280;51077;42.716;23.344;2023-07-08T04:18:30;95641.72;;;19.65;67.66
64668;BME280;51077;42.716;23.344;2023-07-08T04:20:56;95648.16;;;19.75;67.27
64668;BME280;51077;42.716;23.344;2023-07-08T04:23:22;95636.81;;;19.81;67.14
64668;BME280;51077;42.716;23.344;2023-07-08T04:25:49;95643.63;;;19.88;66.95
64668;BME280;51077;42.716;23.344;2023-07-08T04:28:15;95643.97;;;19.92;66.78
64668;BME280;51077;42.716;23.344;2023-07-08T04:30:42;95640.44;;;19.99;66.68
64668;BME280;51077;42.716;23.344;2023-07-08T04:33:08;95649.66;;;20.09;66.35
64668;BME280;51077;42.716;23.344;2023-07-08T04:35:35;95656.50;;;20.16;65.78
64668;BME280;51077;42.716;23.344;2023-07-08T04:38:04;95647.91;;;20.21;65.67
64668;BME280;51077;42.716;23.344;2023-07-08T04:40:35;95653.97;;;20.27;65.49
64668;BME280;51077;42.716;23.344;2023-07-08T04:43:05;95650.97;;;20.33;65.18
64668;BME280;51077;42.716;23.344;2023-07-08T04:45:31;95652.97;;;20.40;65.19
64668;BME280;51077;42.716;23.344;2023-07-08T04:47:56;95654.03;;;20.45;64.74
64668;BME280;51077;42.716;23.344;2023-07-08T04:50:22;95655.50;;;20.53;64.79
64668;BME280;51077;42.716;23.344;2023-07-08T04:52:47;95656.91;;;20.62;64.49
64668;BME280;51077;42.716;23.344;2023-07-08T04:55:14;95652.94;;;20.73;64.09
64668;BME280;51077;42.716;23.344;2023-07-08T04:57:39;95650.47;;;20.77;63.96
64668;BME280;51077;42.716;23.344;2023-07-08T05:00:06;95660.59;;;20.90;63.67
64668;BME280;51077;42.716;23.344;2023-07-08T05:02:35;95658.63;;;21.00;63.32
64668;BME280;51077;42.716;23.344;2023-07-08T05:05:01;95665.28;;;21.04;63.18
64668;BME280;51077;42.716;23.344;2023-07-08T05:07:26;95665.38;;;21.14;62.87
64668;BME280;51077;42.716;23.344;2023-07-08T05:09:51;95672.03;;;21.19;62.43
64668;BME280;51077;42.716;23.344;2023-07-08T05:12:17;95665.63;;;21.26;62.10
64668;BME280;51077;42.716;23.344;2023-07-08T05:14:42;95675.44;;;21.35;62.24
64668;BME280;51077;42.716;23.344;2023-07-08T05:17:08;95671.41;;;21.45;61.67
64668;BME280;51077;42.716;23.344;2023-07-08T05:19:33;95673.69;;;21.56;61.46
64668;BME280;51077;42.716;23.344;2023-07-08T05:21:58;95672.72;;;21.62;60.67
64668;BME280;51077;42.716;23.344;2023-07-08T05:24:24;95681.81;;;21.62;60.28
64668;BME280;51077;42.716;23.344;2023-07-08T05:26:49;95687.00;;;21.66;60.37
64668;BME280;51077;42.716;23.344;2023-07-08T05:29:15;95693.06;;;21.72;60.07
64668;BME280;51077;42.716;23.344;2023-07-08T05:31:40;95681.81;;;21.79;60.06
64668;BME280;51077;42.716;23.344;2023-07-08T05:34:05;95691.16;;;21.92;59.89
64668;BME280;51077;42.716;23.344;2023-07-08T05:36:31;95687.94;;;21.95;59.32
64668;BME280;51077;42.716;23.344;2023-07-08T05:38:57;95691.38;;;22.03;59.19
64668;BME280;51077;42.716;23.344;2023-07-08T05:41:22;95687.75;;;22.11;58.95
64668;BME280;51077;42.716;23.344;2023-07-08T05:43:47;95695.47;;;22.20;58.60
64668;BME280;51077;42.716;23.344;2023-07-08T05:46:13;95698.06;;;22.35;58.47
64668;BME280;51077;42.716;23.344;2023-07-08T05:48:39;95692.72;;;22.56;57.83
64668;BME280;51077;42.716;23.344;2023-07-08T05:51:05;95699.38;;;22.71;57.43
64668;BME280;51077;42.716;23.344;2023-07-08T05:53:30;95705.19;;;22.82;56.87
64668;BME280;51077;42.716;23.344;2023-07-08T05:55:56;95708.63;;;22.91;56.46
64668;BME280;51077;42.716;23.344;2023-07-08T05:58:21;95702.88;;;22.98;56.39
64668;BME280;51077;42.716;23.344;2023-07-08T06:00:47;95700.69;;;23.06;56.02
64668;BME280;51077;42.716;23.344;2023-07-08T06:03:12;95711.19;;;23.16;55.58
64668;BME280;51077;42.716;23.344;2023-07-08T06:05:38;95703.25;;;23.22;55.37
64668;BME280;51077;42.716;23.344;2023-07-08T06:08:05;95708.13;;;23.21;54.98
64668;BME280;51077;42.716;23.344;2023-07-08T06:10:31;95706.03;;;23.22;54.97
64668;BME280;51077;42.716;23.344;2023-07-08T06:12:56;95709.47;;;23.30;54.72
64668;BME280;51077;42.716;23.344;2023-07-08T06:15:22;95704.41;;;23.28;54.62
64668;BME280;51077;42.716;23.344;2023-07-08T06:17:47;95700.88;;;23.28;54.40
64668;BME280;51077;42.716;23.344;2023-07-08T06:20:13;95705.16;;;23.29;54.32
64668;BME280;51077;42.716;23.344;2023-07-08T06:22:38;95706.78;;;23.32;53.94
64668;BME280;51077;42.716;23.344;2023-07-08T06:25:04;95717.44;;;23.33;54.12
64668;BME280;51077;42.716;23.344;2023-07-08T06:27:29;95723.31;;;23.38;54.03
64668;BME280;51077;42.716;23.344;2023-07-08T06:29:55;95714.63;;;23.33;53.66
64668;BME280;51077;42.716;23.344;2023-07-08T06:32:20;95716.09;;;23.44;53.53
64668;BME280;51077;42.716;23.344;2023-07-08T06:34:45;95711.22;;;23.45;53.47
64668;BME280;51077;42.716;23.344;2023-07-08T06:37:11;95716.41;;;23.48;52.97
64668;BME280;51077;42.716;23.344;2023-07-08T06:39:36;95710.78;;;23.58;52.53
64668;BME280;51077;42.716;23.344;2023-07-08T06:42:02;95704.47;;;23.67;52.26
64668;BME280;51077;42.716;23.344;2023-07-08T06:44:27;95699.34;;;23.73;51.87
64668;BME280;51077;42.716;23.344;2023-07-08T06:46:53;95707.00;;;23.82;51.40
64668;BME280;51077;42.716;23.344;2023-07-08T06:49:18;95709.50;;;23.88;51.33
64668;BME280;51077;42.716;23.344;2023-07-08T06:51:44;95707.28;;;23.96;51.39
64668;BME280;51077;42.716;23.344;2023-07-08T06:54:11;95713.59;;;24.06;50.88
64668;BME280;51077;42.716;23.344;2023-07-08T06:56:41;95704.28;;;24.14;50.90
64668;BME280;51077;42.716;23.344;2023-07-08T06:59:07;95718.16;;;24.21;50.60
64668;BME280;51077;42.716;23.344;2023-07-08T07:01:32;95707.97;;;24.26;50.14
64668;BME280;51077;42.716;23.344;2023-07-08T07:03:58;95715.63;;;24.35;50.03
64668;BME280;51077;42.716;23.344;2023-07-08T07:06:24;95706.47;;;24.44;49.35
64668;BME280;51077;42.716;23.344;2023-07-08T07:08:50;95707.16;;;24.54;48.93
64668;BME280;51077;42.716;23.344;2023-07-08T07:11:15;95713.50;;;24.65;48.87
64668;BME280;51077;42.716;23.344;2023-07-08T07:13:41;95716.25;;;24.74;48.83
64668;BME280;51077;42.716;23.344;2023-07-08T07:16:06;95720.69;;;24.77;48.16
64668;BME280;51077;42.716;23.344;2023-07-08T07:18:32;95709.19;;;24.73;48.47
64668;BME280;51077;42.716;23.344;2023-07-08T07:20:58;95719.78;;;24.75;48.05
64668;BME280;51077;42.716;23.344;2023-07-08T07:23:24;95724.97;;;24.78;48.12
64668;BME280;51077;42.716;23.344;2023-07-08T07:25:49;95721.81;;;24.84;48.40
64668;BME280;51077;42.716;23.344;2023-07-08T07:28:16;95732.72;;;24.90;47.96
64668;BME280;51077;42.716;23.344;2023-07-08T07:30:45;95735.34;;;24.97;48.38
64668;BME280;51077;42.716;23.344;2023-07-08T07:33:11;95728.53;;;25.10;47.85
64668;BME280;51077;42.716;23.344;2023-07-08T07:35:46;95732.91;;;25.23;47.75
64668;BME280;51077;42.716;23.344;2023-07-08T07:38:13;95734.78;;;25.30;47.45
64668;BME280;51077;42.716;23.344;2023-07-08T07:40:39;95739.72;;;25.41;47.33
64668;BME280;51077;42.716;23.344;2023-07-08T07:43:05;95744.81;;;25.54;46.78
64668;BME280;51077;42.716;23.344;2023-07-08T07:45:31;95737.47;;;25.71;46.82
64668;BME280;51077;42.716;23.344;2023-07-08T07:47:56;95742.56;;;25.84;46.48
64668;BME280;51077;42.716;23.344;2023-07-08T07:50:22;95742.47;;;25.94;45.81
64668;BME280;51077;42.716;23.344;2023-07-08T07:52:47;95738.03;;;26.12;45.88
64668;BME280;51077;42.716;23.344;2023-07-08T07:55:13;95732.56;;;26.26;45.26
64668;BME280;51077;42.716;23.344;2023-07-08T07:57:38;95743.00;;;26.35;44.91
64668;BME280;51077;42.716;23.344;2023-07-08T08:00:04;95732.72;;;26.40;44.51
64668;BME280;51077;42.716;23.344;2023-07-08T08:02:30;95736.38;;;26.42;44.55
64668;BME280;51077;42.716;23.344;2023-07-08T08:04:55;95749.44;;;26.47;44.20
64668;BME280;51077;42.716;23.344;2023-07-08T08:07:21;95738.03;;;26.45;43.94
64668;BME280;51077;42.716;23.344;2023-07-08T08:09:46;95729.84;;;26.49;43.90
64668;BME280;51077;42.716;23.344;2023-07-08T08:12:12;95737.91;;;26.55;44.08
64668;BME280;51077;42.716;23.344;2023-07-08T08:14:38;95741.25;;;26.75;44.01
64668;BME280;51077;42.716;23.344;2023-07-08T08:17:04;95746.41;;;26.90;43.43
64668;BME280;51077;42.716;23.344;2023-07-08T08:19:29;95751.84;;;27.10;43.41
64668;BME280;51077;42.716;23.344;2023-07-08T08:21:55;95751.69;;;27.31;42.81
64668;BME280;51077;42.716;23.344;2023-07-08T08:24:21;95738.78;;;27.51;42.49
64668;BME280;51077;42.716;23.344;2023-07-08T08:26:46;95756.88;;;27.72;41.71
64668;BME280;51077;42.716;23.344;2023-07-08T08:29:12;95740.44;;;27.92;40.83
64668;BME280;51077;42.716;23.344;2023-07-08T08:31:38;95742.13;;;27.97;40.90
64668;BME280;51077;42.716;23.344;2023-07-08T08:34:03;95740.66;;;27.96;40.88
64668;BME280;51077;42.716;23.344;2023-07-08T08:36:29;95746.88;;;28.06;40.72
64668;BME280;51077;42.716;23.344;2023-07-08T08:38:54;95740.50;;;28.05;40.93
64668;BME280;51077;42.716;23.344;2023-07-08T08:41:33;95745.97;;;28.15;40.81
64668;BME280;51077;42.716;23.344;2023-07-08T08:44:00;95733.69;;;28.22;40.30
64668;BME280;51077;42.716;23.344;2023-07-08T08:46:41;95728.84;;;28.37;40.32
64668;BME280;51077;42.716;23.344;2023-07-08T08:49:32;95739.22;;;28.46;39.85
64668;BME280;51077;42.716;23.344;2023-07-08T08:51:58;95739.13;;;28.44;39.74
64668;BME280;51077;42.716;23.344;2023-07-08T08:54:25;95733.41;;;28.30;39.92
64668;BME280;51077;42.716;23.344;2023-07-08T08:57:16;95739.28;;;28.09;39.84
64668;BME280;51077;42.716;23.344;2023-07-08T09:02:30;95741.59;;;27.75;40.52
64668;BME280;51077;42.716;23.344;2023-07-08T09:05:03;95747.84;;;27.62;41.06
64668;BME280;51077;42.716;23.344;2023-07-08T09:07:29;95741.84;;;27.55;41.41
64668;BME280;51077;42.716;23.344;2023-07-08T09:10:06;95744.66;;;27.55;41.41
64668;BME280;51077;42.716;23.344;2023-07-08T09:12:34;95729.91;;;27.69;41.28
64668;BME280;51077;42.716;23.344;2023-07-08T09:15:10;95729.66;;;27.88;41.10
64668;BME280;51077;42.716;23.344;2023-07-08T09:17:38;95728.13;;;27.99;40.78
64668;BME280;51077;42.716;23.344;2023-07-08T09:22:38;95724.50;;;28.47;39.86
64668;BME280;51077;42.716;23.344;2023-07-08T09:27:49;95716.75;;;29.01;38.91
64668;BME280;51077;42.716;23.344;2023-07-08T09:30:17;95711.19;;;29.17;38.36
64668;BME280;51077;42.716;23.344;2023-07-08T09:32:42;95716.44;;;29.36;38.07
64668;BME280;51077;42.716;23.344;2023-07-08T09:35:09;95705.03;;;29.48;37.64
64668;BME280;51077;42.716;23.344;2023-07-08T09:37:46;95710.25;;;29.67;37.19
64668;BME280;51077;42.716;23.344;2023-07-08T09:40:32;95694.88;;;29.86;36.90
64668;BME280;51077;42.716;23.344;2023-07-08T09:45:46;95701.22;;;30.14;36.18
64668;BME280;51077;42.716;23.344;2023-07-08T09:48:45;95689.28;;;30.32;35.72
64668;BME280;51077;42.716;23.344;2023-07-08T09:51:04;95697.25;;;30.51;35.30
64668;BME280;51077;42.716;23.344;2023-07-08T09:53:30;95693.06;;;30.68;34.63
64668;BME280;51077;42.716;23.344;2023-07-08T09:55:59;95683.16;;;30.83;34.66
64668;BME280;51077;42.716;23.344;2023-07-08T09:58:34;95685.66;;;31.08;34.38
64668;BME280;51077;42.716;23.344;2023-07-08T10:01:13;95686.47;;;31.26;33.93
64668;BME280;51077;42.716;23.344;2023-07-08T10:03:40;95685.22;;;31.47;33.79
64668;BME280;51077;42.716;23.344;2023-07-08T10:06:18;95687.06;;;31.74;33.17
64668;BME280;51077;42.716;23.344;2023-07-08T10:08:45;95675.44;;;31.84;33.18
64668;BME280;51077;42.716;23.344;2023-07-08T10:11:25;95674.13;;;32.05;32.86
64668;BME280;51077;42.716;23.344;2023-07-08T10:13:53;95674.75;;;32.21;32.65
64668;BME280;51077;42.716;23.344;2023-07-08T10:16:25;95671.09;;;32.37;32.27
64668;BME280;51077;42.716;23.344;2023-07-08T10:18:52;95666.31;;;32.41;32.24
64668;BME280;51077;42.716;23.344;2023-07-08T10:38:15;95661.38;;;32.99;30.76
64668;BME280;51077;42.716;23.344;2023-07-08T10:40:48;95645.63;;;32.96;30.80
64668;BME280;51077;42.716;23.344;2023-07-08T11:05:58;95623.78;;;33.65;29.24
64668;BME280;51077;42.716;23.344;2023-07-08T11:08:31;95620.28;;;33.88;29.44
64668;BME280;51077;42.716;23.344;2023-07-08T11:13:50;95618.06;;;34.09;28.83
64668;BME280;51077;42.716;23.344;2023-07-08T11:16:30;95598.88;;;34.33;28.99
64668;BME280;51077;42.716;23.344;2023-07-08T11:19:03;95600.53;;;33.94;28.91
64668;BME280;51077;42.716;23.344;2023-07-08T11:21:31;95603.97;;;33.91;29.14
64668;BME280;51077;42.716;23.344;2023-07-08T11:24:37;95603.59;;;34.00;29.17
64668;BME280;51077;42.716;23.344;2023-07-08T11:27:24;95598.38;;;34.17;28.36
64668;BME280;51077;42.716;23.344;2023-07-08T11:30:11;95598.31;;;34.15;28.36
64668;BME280;51077;42.716;23.344;2023-07-08T11:32:38;95594.63;;;34.10;28.55
64668;BME280;51077;42.716;23.344;2023-07-08T11:35:07;95588.69;;;34.26;28.89
64668;BME280;51077;42.716;23.344;2023-07-08T11:37:39;95593.13;;;34.31;28.27
64668;BME280;51077;42.716;23.344;2023-07-08T11:44:56;95592.13;;;33.98;28.47
64668;BME280;51077;42.716;23.344;2023-07-08T11:50:02;95597.88;;;32.93;29.62
64668;BME280;51077;42.716;23.344;2023-07-08T11:52:29;95603.91;;;32.83;30.40
64668;BME280;51077;42.716;23.344;2023-07-08T11:55:22;95598.66;;;32.56;30.61
64668;BME280;51077;42.716;23.344;2023-07-08T11:57:53;95596.19;;;32.28;31.20
64668;BME280;51077;42.716;23.344;2023-07-08T12:00:24;95613.59;;;32.18;31.00
64668;BME280;51077;42.716;23.344;2023-07-08T12:02:56;95607.91;;;32.18;31.22
64668;BME280;51077;42.716;23.344;2023-07-08T12:05:35;95611.34;;;31.79;31.45
64668;BME280;51077;42.716;23.344;2023-07-08T12:08:02;95611.25;;;31.59;32.07
64668;BME280;51077;42.716;23.344;2023-07-08T12:10:42;95603.84;;;31.34;31.95
64668;BME280;51077;42.716;23.344;2023-07-08T12:13:13;95604.69;;;31.21;32.33
64668;BME280;51077;42.716;23.344;2023-07-08T12:15:39;95601.94;;;31.57;31.91
64668;BME280;51077;42.716;23.344;2023-07-08T12:18:17;95596.44;;;31.96;31.26
64668;BME280;51077;42.716;23.344;2023-07-08T12:20:47;95600.69;;;32.15;30.88
64668;BME280;51077;42.716;23.344;2023-07-08T12:23:24;95595.53;;;31.92;31.40
64668;BME280;51077;42.716;23.344;2023-07-08T12:25:51;95587.50;;;31.50;31.41
64668;BME280;51077;42.716;23.344;2023-07-08T12:28:18;95590.88;;;31.29;31.83
64668;BME280;51077;42.716;23.344;2023-07-08T12:30:45;95599.09;;;31.23;31.90
64668;BME280;51077;42.716;23.344;2023-07-08T12:33:29;95601.34;;;31.60;32.01
64668;BME280;51077;42.716;23.344;2023-07-08T12:35:56;95588.06;;;32.00;31.22
64668;BME280;51077;42.716;23.344;2023-07-08T12:38:33;95583.44;;;31.73;31.63
64668;BME280;51077;42.716;23.344;2023-07-08T12:41:08;95585.78;;;31.79;31.49
64668;BME280;51077;42.716;23.344;2023-07-08T12:43:34;95586.03;;;31.49;31.92
64668;BME280;51077;42.716;23.344;2023-07-08T12:46:00;95580.72;;;31.24;32.45
64668;BME280;51077;42.716;23.344;2023-07-08T12:48:25;95585.53;;;31.37;32.20
64668;BME280;51077;42.716;23.344;2023-07-08T12:50:56;95575.25;;;31.64;31.94
64668;BME280;51077;42.716;23.344;2023-07-08T12:53:21;95558.94;;;31.82;32.05
64668;BME280;51077;42.716;23.344;2023-07-08T12:55:47;95569.72;;;32.03;31.53
64668;BME280;51077;42.716;23.344;2023-07-08T12:58:24;95567.22;;;32.32;31.24
64668;BME280;51077;42.716;23.344;2023-07-08T13:00:54;95572.97;;;32.34;31.04
64668;BME280;51077;42.716;23.344;2023-07-08T13:03:23;95570.03;;;32.49;30.80
64668;BME280;51077;42.716;23.344;2023-07-08T13:05:51;95572.56;;;32.41;30.54
64668;BME280;51077;42.716;23.344;2023-07-08T13:08:21;95564.44;;;32.14;30.99
64668;BME280;51077;42.716;23.344;2023-07-08T13:10:48;95580.19;;;31.99;31.27
64668;BME280;51077;42.716;23.344;2023-07-08T13:13:20;95579.84;;;31.73;31.63
64668;BME280;51077;42.716;23.344;2023-07-08T13:15:46;95582.38;;;31.47;32.06
64668;BME280;51077;42.716;23.344;2023-07-08T13:18:17;95582.53;;;31.33;32.31
64668;BME280;51077;42.716;23.344;2023-07-08T13:20:47;95578.41;;;31.36;31.98
64668;BME280;51077;42.716;23.344;2023-07-08T13:23:14;95583.69;;;31.44;32.10
64668;BME280;51077;42.716;23.344;2023-07-08T13:25:39;95590.72;;;31.43;32.03
64668;BME280;51077;42.716;23.344;2023-07-08T13:30:50;95586.09;;;31.34;32.35
64668;BME280;51077;42.716;23.344;2023-07-08T13:33:16;95577.88;;;31.24;32.71
64668;BME280;51077;42.716;23.344;2023-07-08T13:35:42;95582.56;;;31.17;32.80
64668;BME280;51077;42.716;23.344;2023-07-08T13:38:20;95562.59;;;30.97;32.50
64668;BME280;51077;42.716;23.344;2023-07-08T13:40:49;95577.00;;;30.70;32.96
64668;BME280;51077;42.716;23.344;2023-07-08T13:43:23;95566.69;;;30.61;33.55
64668;BME280;51077;42.716;23.344;2023-07-08T13:45:49;95576.09;;;30.49;33.62
64668;BME280;51077;42.716;23.344;2023-07-08T13:48:21;95568.34;;;30.34;33.82
64668;BME280;51077;42.716;23.344;2023-07-08T13:50:58;95576.13;;;30.18;33.85
64668;BME280;51077;42.716;23.344;2023-07-08T13:53:35;95580.72;;;29.95;34.23
64668;BME280;51077;42.716;23.344;2023-07-08T13:56:21;95575.56;;;29.76;34.50
64668;BME280;51077;42.716;23.344;2023-07-08T13:58:51;95570.69;;;29.63;35.06
64668;BME280;51077;42.716;23.344;2023-07-08T14:01:23;95581.09;;;29.58;35.07
64668;BME280;51077;42.716;23.344;2023-07-08T14:03:51;95576.91;;;29.45;35.42
64668;BME280;51077;42.716;23.344;2023-07-08T14:06:20;95578.81;;;29.41;35.32